sensor_id;sensor_type;location;lat;lon;timestamp;temperature;humidity
1878;DHT22;939;51.426;6.972;2023-03-01T00:01:01;2.30;99.90
1878;DHT22;939;51.426;6.972;2023-03-01T00:03:30;2.20;99.90
1878;DHT22;939;51.426;6.972;2023-03-01T00:05:57;2.20;99.90
1878;DHT22;939;51.426;6.972;2023-03-01T00:08:24;2.20;99.90
1878;DHT22;939;51.426;6.972;2023-03-01T00:11:00;2.20;99.90
1878;DHT22;939;51.426;6.972;2023-03-01T00:13:27;2.10;99.90
1878;DHT22;939;51.426;6.972;2023-03-01T00:15:54;2.10;99.90
1878;DHT22;939;51.426;6.972;2023-03-01T00:18:21;2.10;99.90
1878;DHT22;939;51.426;6.972;2023-03-01T00:20:52;2.10;99.90
1878;DHT22;939;51.426;6.972;2023-03-01T00:23:19;2.10;99.90
1878;DHT22;939;51.426;6.972;2023-03-01T00:25:46;2.10;99.90
1878;DHT22;939;51.426;6.972;2023-03-01T00:28:14;2.10;99.90
1878;DHT22;939;51.426;6.972;2023-03-01T00:30:44;2.10;99.90
1878;DHT22;939;51.426;6.972;2023-03-01T00:33:12;2.10;99.90
1878;DHT22;939;51.426;6.972;2023-03-01T00:35:39;2.00;99.90
1878;DHT22;939;51.426;6.972;2023-03-01T00:38:09;2.10;99.90
1878;DHT22;939;51.426;6.972;2023-03-01T00:40:36;2.00;99.90
1878;DHT22;939;51.426;6.972;2023-03-01T00:43:03;2.00;99.90
1878;DHT22;939;51.426;6.972;2023-03-01T00:45:32;2.00;99.90
1878;DHT22;939;51.426;6.972;2023-03-01T00:47:59;2.00;99.90
1878;DHT22;939;51.426;6.972;2023-03-01T00:50:26;2.00;99.90
1878;DHT22;939;51.426;6.972;2023-03-01T00:52:54;2.00;99.90
1878;DHT22;939;51.426;6.972;2023-03-01T00:55:22;2.00;99.90
1878;DHT22;939;51.426;6.972;2023-03-01T00:57:49;2.00;99.90
1878;DHT22;939;51.426;6.972;2023-03-01T01:00:18;2.00;99.90
1878;DHT22;939;51.426;6.972;2023-03-01T01:02:45;2.00;99.90
1878;DHT22;939;51.426;6.972;2023-03-01T01:05:20;2.00;99.90
1878;DHT22;939;51.426;6.972;2023-03-01T01:07:48;1.60;99.90
1878;DHT22;939;51.426;6.972;2023-03-01T01:10:15;1.70;99.90
1878;DHT22;939;51.426;6.972;2023-03-01T01:12:45;1.80;99.90
1878;DHT22;939;51.426;6.972;2023-03-01T01:15:11;1.90;99.90
1878;DHT22;939;51.426;6.972;2023-03-01T01:17:41;1.90;99.90
1878;DHT22;939;51.426;6.972;2023-03-01T01:20:09;1.90;99.90
1878;DHT22;939;51.426;6.972;2023-03-01T01:22:36;1.90;99.90
1878;DHT22;939;51.426;6.972;2023-03-01T01:25:04;1.90;99.90
1878;DHT22;939;51.426;6.972;2023-03-01T01:27:31;1.90;99.90
1878;DHT22;939;51.426;6.972;2023-03-01T01:29:59;1.90;99.90
1878;DHT22;939;51.426;6.972;2023-03-01T01:32:26;1.80;99.90
1878;DHT22;939;51.426;6.972;2023-03-01T01:34:53;1.80;99.90
1878;DHT22;939;51.426;6.972;2023-03-01T01:37:20;1.60;99.90
1878;DHT22;939;51.426;6.972;2023-03-01T01:39:47;1.60;99.90
1878;DHT22;939;51.426;6.972;2023-03-01T01:42:15;1.70;99.90
1878;DHT22;939;51.426;6.972;2023-03-01T01:44:46;1.70;99.90
1878;DHT22;939;51.426;6.972;2023-03-01T01:47:16;1.70;99.90
1878;DHT22;939;51.426;6.972;2023-03-01T01:49:47;1.60;99.90
1878;DHT22;939;51.426;6.972;2023-03-01T01:52:18;1.60;99.90
1878;DHT22;939;51.426;6.972;2023-03-01T01:54:50;1.60;99.90
1878;DHT22;939;51.426;6.972;2023-03-01T01:57:22;1.60;99.90
1878;DHT22;939;51.426;6.972;2023-03-01T01:59:55;1.60;99.90
1878;DHT22;939;51.426;6.972;2023-03-01T02:02:36;1.50;99.90
1878;DHT22;939;51.426;6.972;2023-03-01T02:05:24;1.50;99.90
1878;DHT22;939;51.426;6.972;2023-03-01T02:08:18;1.50;99.90
1878;DHT22;939;51.426;6.972;2023-03-01T02:10:51;1.50;99.90
1878;DHT22;939;51.426;6.972;2023-03-01T02:13:40;1.50;99.90
1878;DHT22;939;51.426;6.972;2023-03-01T02:16:41;1.50;99.90
1878;DHT22;939;51.426;6.972;2023-03-01T02:19:31;1.40;99.90
1878;DHT22;939;51.426;6.972;2023-03-01T02:22:07;1.40;99.90
1878;DHT22;939;51.426;6.972;2023-03-01T02:24:40;1.40;99.90
1878;DHT22;939;51.426;6.972;2023-03-01T02:27:12;1.40;99.90
1878;DHT22;939;51.426;6.972;2023-03-01T02:29:40;1.40;99.90
1878;DHT22;939;51.426;6.972;2023-03-01T02:32:11;1.20;99.90
1878;DHT22;939;51.426;6.972;2023-03-01T02:34:38;1.20;99.90
1878;DHT22;939;51.426;6.972;2023-03-01T02:37:09;1.30;99.90
1878;DHT22;939;51.426;6.972;2023-03-01T02:39:41;1.30;99.90
1878;DHT22;939;51.426;6.972;2023-03-01T02:42:12;1.30;99.90
1878;DHT22;939;51.426;6.972;2023-03-01T02:44:41;1.20;99.90
1878;DHT22;939;51.426;6.972;2023-03-01T02:47:08;1.30;99.90
1878;DHT22;939;51.426;6.972;2023-03-01T02:49:36;1.40;99.90
1878;DHT22;939;51.426;6.972;2023-03-01T02:52:18;1.30;99.90
1878;DHT22;939;51.426;6.972;2023-03-01T02:54:52;1.30;99.90
1878;DHT22;939;51.426;6.972;2023-03-01T02:57:22;1.40;99.90
1878;DHT22;939;51.426;6.972;2023-03-01T02:59:51;1.40;99.90
1878;DHT22;939;51.426;6.972;2023-03-01T03:02:20;1.40;99.90
1878;DHT22;939;51.426;6.972;2023-03-01T03:05:02;1.30;99.90
1878;DHT22;939;51.426;6.972;2023-03-01T03:07:32;1.30;99.90
1878;DHT22;939;51.426;6.972;2023-03-01T03:09:59;1.30;99.90
1878;DHT22;939;51.426;6.972;2023-03-01T03:12:26;1.30;99.90
1878;DHT22;939;51.426;6.972;2023-03-01T03:14:54;1.30;99.90
1878;DHT22;939;51.426;6.972;2023-03-01T03:17:21;1.30;99.90
1878;DHT22;939;51.426;6.972;2023-03-01T03:19:48;1.30;99.90
1878;DHT22;939;51.426;6.972;2023-03-01T03:22:15;1.30;99.90
1878;DHT22;939;51.426;6.972;2023-03-01T03:24:42;1.30;99.90
1878;DHT22;939;51.426;6.972;2023-03-01T03:27:09;1.20;99.90
1878;DHT22;939;51.426;6.972;2023-03-01T03:29:36;1.20;99.90
1878;DHT22;939;51.426;6.972;2023-03-01T03:32:04;1.20;99.90
1878;DHT22;939;51.426;6.972;2023-03-01T03:34:31;1.30;99.90
1878;DHT22;939;51.426;6.972;2023-03-01T03:36:58;1.20;99.90
1878;DHT22;939;51.426;6.972;2023-03-01T03:39:26;1.20;99.90
1878;DHT22;939;51.426;6.972;2023-03-01T03:41:53;1.20;99.90
1878;DHT22;939;51.426;6.972;2023-03-01T03:44:20;1.20;99.90
1878;DHT22;939;51.426;6.972;2023-03-01T03:46:47;1.20;99.90
1878;DHT22;939;51.426;6.972;2023-03-01T03:49:15;1.10;99.90
1878;DHT22;939;51.426;6.972;2023-03-01T03:51:42;1.20;99.90
1878;DHT22;939;51.426;6.972;2023-03-01T03:54:11;1.20;99.90
1878;DHT22;939;51.426;6.972;2023-03-01T03:56:38;1.20;99.90
1878;DHT22;939;51.426;6.972;2023-03-01T03:59:05;1.20;99.90
1878;DHT22;939;51.426;6.972;2023-03-01T04:01:32;1.20;99.90
1878;DHT22;939;51.426;6.972;2023-03-01T04:03:58;1.20;99.90
1878;DHT22;939;51.426;6.972;2023-03-01T04:06:31;1.20;99.90
1878;DHT22;939;51.426;6.972;2023-03-01T04:08:57;1.20;99.90
1878;DHT22;939;51.426;6.972;2023-03-01T04:11:26;1.30;99.90
1878;DHT22;939;51.426;6.972;2023-03-01T04:13:54;1.20;99.90
1878;DHT22;939;51.426;6.972;2023-03-01T04:16:21;1.20;99.90
1878;DHT22;939;51.426;6.972;2023-03-01T04:18:48;1.20;99.90
1878;DHT22;939;51.426;6.972;2023-03-01T04:21:16;1.20;99.90
1878;DHT22;939;51.426;6.972;2023-03-01T04:23:44;1.20;99.90
1878;DHT22;939;51.426;6.972;2023-03-01T04:26:11;1.20;99.90
1878;DHT22;939;51.426;6.972;2023-03-01T04:28:39;1.20;99.90
1878;DHT22;939;51.426;6.972;2023-03-01T04:31:10;1.20;99.90
1878;DHT22;939;51.426;6.972;2023-03-01T04:33:39;1.10;99.90
1878;DHT22;939;51.426;6.972;2023-03-01T04:36:07;1.10;99.90
1878;DHT22;939;51.426;6.972;2023-03-01T04:38:35;1.00;99.90
1878;DHT22;939;51.426;6.972;2023-03-01T04:41:04;1.10;99.90
1878;DHT22;939;51.426;6.972;2023-03-01T04:43:31;1.10;99.90
1878;DHT22;939;51.426;6.972;2023-03-01T04:46:03;1.10;99.90
1878;DHT22;939;51.426;6.972;2023-03-01T04:48:32;1.10;99.90
1878;DHT22;939;51.426;6.972;2023-03-01T04:50:59;1.10;99.90
1878;DHT22;939;51.426;6.972;2023-03-01T04:53:27;1.00;99.90
1878;DHT22;939;51.426;6.972;2023-03-01T04:55:54;1.00;99.90
1878;DHT22;939;51.426;6.972;2023-03-01T04:58:23;1.00;99.90
1878;DHT22;939;51.426;6.972;2023-03-01T05:00:50;0.90;99.90
1878;DHT22;939;51.426;6.972;2023-03-01T05:03:18;0.90;99.90
1878;DHT22;939;51.426;6.972;2023-03-01T05:05:46;0.90;99.90
1878;DHT22;939;51.426;6.972;2023-03-01T05:08:14;0.90;99.90
1878;DHT22;939;51.426;6.972;2023-03-01T05:10:44;1.00;99.90
1878;DHT22;939;51.426;6.972;2023-03-01T05:13:13;1.00;99.90
1878;DHT22;939;51.426;6.972;2023-03-01T05:15:47;1.00;99.90
1878;DHT22;939;51.426;6.972;2023-03-01T05:18:15;1.00;99.90
1878;DHT22;939;51.426;6.972;2023-03-01T05:20:42;1.00;99.90
1878;DHT22;939;51.426;6.972;2023-03-01T05:23:10;1.00;99.90
1878;DHT22;939;51.426;6.972;2023-03-01T05:25:37;1.00;99.90
1878;DHT22;939;51.426;6.972;2023-03-01T05:28:06;1.00;99.90
1878;DHT22;939;51.426;6.972;2023-03-01T05:30:35;1.00;99.90
1878;DHT22;939;51.426;6.972;2023-03-01T05:33:03;1.00;99.90
1878;DHT22;939;51.426;6.972;2023-03-01T05:35:33;1.10;99.90
1878;DHT22;939;51.426;6.972;2023-03-01T05:37:59;1.10;99.90
1878;DHT22;939;51.426;6.972;2023-03-01T05:40:26;1.20;99.90
1878;DHT22;939;51.426;6.972;2023-03-01T05:42:55;1.20;99.90
1878;DHT22;939;51.426;6.972;2023-03-01T05:45:24;1.20;99.90
1878;DHT22;939;51.426;6.972;2023-03-01T05:47:51;1.30;99.90
1878;DHT22;939;51.426;6.972;2023-03-01T05:50:23;1.30;99.90
1878;DHT22;939;51.426;6.972;2023-03-01T05:52:54;1.20;99.90
1878;DHT22;939;51.426;6.972;2023-03-01T05:55:22;1.20;99.90
1878;DHT22;939;51.426;6.972;2023-03-01T05:57:49;1.20;99.90
1878;DHT22;939;51.426;6.972;2023-03-01T06:00:18;1.20;99.90
1878;DHT22;939;51.426;6.972;2023-03-01T06:02:45;1.10;99.90
1878;DHT22;939;51.426;6.972;2023-03-01T06:05:13;1.10;99.90
1878;DHT22;939;51.426;6.972;2023-03-01T06:07:42;1.10;99.90
1878;DHT22;939;51.426;6.972;2023-03-01T06:10:11;1.10;99.90
1878;DHT22;939;51.426;6.972;2023-03-01T06:12:40;1.20;99.90
1878;DHT22;939;51.426;6.972;2023-03-01T06:15:09;1.20;99.90
1878;DHT22;939;51.426;6.972;2023-03-01T06:17:38;1.20;99.90
1878;DHT22;939;51.426;6.972;2023-03-01T06:20:08;1.20;99.90
1878;DHT22;939;51.426;6.972;2023-03-01T06:22:35;1.20;99.90
1878;DHT22;939;51.426;6.972;2023-03-01T06:25:04;1.20;99.90
1878;DHT22;939;51.426;6.972;2023-03-01T06:27:31;1.20;99.90
1878;DHT22;939;51.426;6.972;2023-03-01T06:29:58;1.20;99.90
1878;DHT22;939;51.426;6.972;2023-03-01T06:32:25;1.20;99.90
1878;DHT22;939;51.426;6.972;2023-03-01T06:34:52;1.20;99.90
1878;DHT22;939;51.426;6.972;2023-03-01T06:37:19;1.30;99.90
1878;DHT22;939;51.426;6.972;2023-03-01T06:39:46;1.30;99.90
1878;DHT22;939;51.426;6.972;2023-03-01T06:42:14;1.30;99.90
1878;DHT22;939;51.426;6.972;2023-03-01T06:44:41;1.20;99.90
1878;DHT22;939;51.426;6.972;2023-03-01T06:47:08;1.10;99.90
1878;DHT22;939;51.426;6.972;2023-03-01T06:49:35;1.10;99.90
1878;DHT22;939;51.426;6.972;2023-03-01T06:52:02;1.20;99.90
1878;DHT22;939;51.426;6.972;2023-03-01T06:54:28;1.10;99.90
1878;DHT22;939;51.426;6.972;2023-03-01T06:56:55;1.20;99.90
1878;DHT22;939;51.426;6.972;2023-03-01T06:59:24;1.30;99.90
1878;DHT22;939;51.426;6.972;2023-03-01T07:01:50;1.30;99.90
1878;DHT22;939;51.426;6.972;2023-03-01T07:04:20;1.30;99.90
1878;DHT22;939;51.426;6.972;2023-03-01T07:06:47;1.30;99.90
1878;DHT22;939;51.426;6.972;2023-03-01T07:09:21;1.40;99.90
1878;DHT22;939;51.426;6.972;2023-03-01T07:11:51;1.30;99.90
1878;DHT22;939;51.426;6.972;2023-03-01T07:14:20;1.40;99.90
1878;DHT22;939;51.426;6.972;2023-03-01T07:16:52;1.40;99.90
1878;DHT22;939;51.426;6.972;2023-03-01T07:19:22;1.50;99.90
1878;DHT22;939;51.426;6.972;2023-03-01T07:21:49;1.50;99.90
1878;DHT22;939;51.426;6.972;2023-03-01T07:24:16;1.50;99.90
1878;DHT22;939;51.426;6.972;2023-03-01T07:26:43;1.60;99.90
1878;DHT22;939;51.426;6.972;2023-03-01T07:29:14;1.60;99.90
1878;DHT22;939;51.426;6.972;2023-03-01T07:31:44;1.60;99.90
1878;DHT22;939;51.426;6.972;2023-03-01T07:34:12;1.70;99.90
1878;DHT22;939;51.426;6.972;2023-03-01T07:36:39;1.70;99.90
1878;DHT22;939;51.426;6.972;2023-03-01T07:39:09;1.70;99.90
1878;DHT22;939;51.426;6.972;2023-03-01T07:41:39;1.80;99.90
1878;DHT22;939;51.426;6.972;2023-03-01T07:44:05;1.80;99.90
1878;DHT22;939;51.426;6.972;2023-03-01T07:46:32;1.90;99.90
1878;DHT22;939;51.426;6.972;2023-03-01T07:49:00;1.90;99.90
1878;DHT22;939;51.426;6.972;2023-03-01T07:51:29;1.90;99.90
1878;DHT22;939;51.426;6.972;2023-03-01T07:53:59;2.00;99.90
1878;DHT22;939;51.426;6.972;2023-03-01T07:56:26;2.00;99.90
1878;DHT22;939;51.426;6.972;2023-03-01T07:58:53;2.10;99.90
1878;DHT22;939;51.426;6.972;2023-03-01T08:01:21;2.10;99.90
1878;DHT22;939;51.426;6.972;2023-03-01T08:03:55;2.10;99.90
1878;DHT22;939;51.426;6.972;2023-03-01T08:06:34;2.20;99.90
1878;DHT22;939;51.426;6.972;2023-03-01T08:09:01;2.20;99.90
1878;DHT22;939;51.426;6.972;2023-03-01T08:11:28;2.20;99.90
1878;DHT22;939;51.426;6.972;2023-03-01T08:13:56;2.30;99.90
1878;DHT22;939;51.426;6.972;2023-03-01T08:16:23;2.40;99.90
1878;DHT22;939;51.426;6.972;2023-03-01T08:18:50;2.50;99.90
1878;DHT22;939;51.426;6.972;2023-03-01T08:21:18;2.60;99.90
1878;DHT22;939;51.426;6.972;2023-03-01T08:23:46;2.60;99.90
1878;DHT22;939;51.426;6.972;2023-03-01T08:26:15;2.60;99.90
1878;DHT22;939;51.426;6.972;2023-03-01T08:28:42;2.60;99.90
1878;DHT22;939;51.426;6.972;2023-03-01T08:31:17;2.50;99.90
1878;DHT22;939;51.426;6.972;2023-03-01T08:33:44;2.60;99.90
1878;DHT22;939;51.426;6.972;2023-03-01T08:36:16;2.80;99.90
1878;DHT22;939;51.426;6.972;2023-03-01T08:38:43;2.90;99.90
1878;DHT22;939;51.426;6.972;2023-03-01T08:41:11;2.90;99.90
1878;DHT22;939;51.426;6.972;2023-03-01T08:43:38;3.00;99.90
1878;DHT22;939;51.426;6.972;2023-03-01T08:46:05;3.10;99.90
1878;DHT22;939;51.426;6.972;2023-03-01T08:48:32;3.20;99.90
1878;DHT22;939;51.426;6.972;2023-03-01T08:51:07;3.10;99.90
1878;DHT22;939;51.426;6.972;2023-03-01T08:53:34;3.20;99.90
1878;DHT22;939;51.426;6.972;2023-03-01T08:56:01;3.40;99.90
1878;DHT22;939;51.426;6.972;2023-03-01T08:58:30;3.60;99.90
1878;DHT22;939;51.426;6.972;2023-03-01T09:00:57;3.80;99.90
1878;DHT22;939;51.426;6.972;2023-03-01T09:03:24;3.90;99.90
1878;DHT22;939;51.426;6.972;2023-03-01T09:05:51;3.90;99.60
1878;DHT22;939;51.426;6.972;2023-03-01T09:08:19;4.00;99.90
1878;DHT22;939;51.426;6.972;2023-03-01T09:10:46;4.20;99.70
1878;DHT22;939;51.426;6.972;2023-03-01T09:13:13;4.40;98.80
1878;DHT22;939;51.426;6.972;2023-03-01T09:15:41;4.50;98.70
1878;DHT22;939;51.426;6.972;2023-03-01T09:18:08;4.70;97.50
1878;DHT22;939;51.426;6.972;2023-03-01T09:20:35;4.80;97.00
1878;DHT22;939;51.426;6.972;2023-03-01T09:23:02;4.80;96.50
1878;DHT22;939;51.426;6.972;2023-03-01T09:25:29;4.90;96.60
1878;DHT22;939;51.426;6.972;2023-03-01T09:27:55;4.80;95.90
1878;DHT22;939;51.426;6.972;2023-03-01T09:30:22;4.90;95.90
1878;DHT22;939;51.426;6.972;2023-03-01T09:32:51;5.00;95.40
1878;DHT22;939;51.426;6.972;2023-03-01T09:35:18;5.00;95.70
1878;DHT22;939;51.426;6.972;2023-03-01T09:37:48;5.10;94.90
1878;DHT22;939;51.426;6.972;2023-03-01T09:40:18;5.30;94.90
1878;DHT22;939;51.426;6.972;2023-03-01T09:42:51;5.90;96.00
1878;DHT22;939;51.426;6.972;2023-03-01T09:45:26;7.70;93.40
1878;DHT22;939;51.426;6.972;2023-03-01T09:47:56;10.20;82.40
1878;DHT22;939;51.426;6.972;2023-03-01T09:50:23;12.80;67.80
1878;DHT22;939;51.426;6.972;2023-03-01T09:52:59;15.70;47.60
1878;DHT22;939;51.426;6.972;2023-03-01T09:55:31;16.40;29.90
1878;DHT22;939;51.426;6.972;2023-03-01T09:58:04;16.40;26.90
1878;DHT22;939;51.426;6.972;2023-03-01T10:00:38;17.70;25.30
1878;DHT22;939;51.426;6.972;2023-03-01T10:03:16;18.10;21.80
1878;DHT22;939;51.426;6.972;2023-03-01T10:05:53;16.90;20.40
1878;DHT22;939;51.426;6.972;2023-03-01T10:08:40;16.00;19.70
1878;DHT22;939;51.426;6.972;2023-03-01T10:11:19;14.60;22.00
1878;DHT22;939;51.426;6.972;2023-03-01T10:13:50;13.40;23.50
1878;DHT22;939;51.426;6.972;2023-03-01T10:16:24;11.70;24.20
1878;DHT22;939;51.426;6.972;2023-03-01T10:18:58;10.40;26.10
1878;DHT22;939;51.426;6.972;2023-03-01T10:21:27;10.00;28.10
1878;DHT22;939;51.426;6.972;2023-03-01T10:23:55;9.60;29.60
1878;DHT22;939;51.426;6.972;2023-03-01T10:29:16;8.90;33.60
1878;DHT22;939;51.426;6.972;2023-03-01T10:31:46;8.60;35.60
1878;DHT22;939;51.426;6.972;2023-03-01T10:34:17;8.30;35.50
1878;DHT22;939;51.426;6.972;2023-03-01T10:36:48;8.00;37.00
1878;DHT22;939;51.426;6.972;2023-03-01T10:39:17;7.60;38.40
1878;DHT22;939;51.426;6.972;2023-03-01T10:41:57;7.40;38.40
1878;DHT22;939;51.426;6.972;2023-03-01T10:44:37;7.00;40.80
1878;DHT22;939;51.426;6.972;2023-03-01T10:47:05;7.00;44.00
1878;DHT22;939;51.426;6.972;2023-03-01T10:49:35;7.00;43.80
1878;DHT22;939;51.426;6.972;2023-03-01T10:52:18;6.90;43.90
1878;DHT22;939;51.426;6.972;2023-03-01T10:54:52;6.90;44.00
1878;DHT22;939;51.426;6.972;2023-03-01T10:57:30;7.00;44.70
1878;DHT22;939;51.426;6.972;2023-03-01T11:02:47;7.00;44.80
1878;DHT22;939;51.426;6.972;2023-03-01T11:05:20;6.90;45.80
1878;DHT22;939;51.426;6.972;2023-03-01T11:07:50;6.90;45.70
1878;DHT22;939;51.426;6.972;2023-03-01T11:10:20;6.80;46.90
1878;DHT22;939;51.426;6.972;2023-03-01T11:12:47;6.60;46.60
1878;DHT22;939;51.426;6.972;2023-03-01T11:15:25;6.70;47.10
1878;DHT22;939;51.426;6.972;2023-03-01T11:17:53;6.80;46.70
1878;DHT22;939;51.426;6.972;2023-03-01T11:20:27;6.70;45.10
1878;DHT22;939;51.426;6.972;2023-03-01T11:22:59;6.70;44.00
1878;DHT22;939;51.426;6.972;2023-03-01T11:25:32;6.80;44.00
1878;DHT22;939;51.426;6.972;2023-03-01T11:28:03;6.70;45.80
1878;DHT22;939;51.426;6.972;2023-03-01T11:30:34;6.70;46.70
1878;DHT22;939;51.426;6.972;2023-03-01T11:33:16;6.60;47.30
1878;DHT22;939;51.426;6.972;2023-03-01T11:35:50;6.50;46.40
1878;DHT22;939;51.426;6.972;2023-03-01T11:38:23;6.60;46.10
1878;DHT22;939;51.426;6.972;2023-03-01T11:40:54;6.70;47.40
1878;DHT22;939;51.426;6.972;2023-03-01T11:43:33;6.70;46.60
1878;DHT22;939;51.426;6.972;2023-03-01T11:46:40;6.70;46.90
1878;DHT22;939;51.426;6.972;2023-03-01T11:49:24;6.80;46.40
1878;DHT22;939;51.426;6.972;2023-03-01T11:52:02;6.80;48.20
1878;DHT22;939;51.426;6.972;2023-03-01T11:54:46;6.80;47.10
1878;DHT22;939;51.426;6.972;2023-03-01T11:57:24;6.70;47.10
1878;DHT22;939;51.426;6.972;2023-03-01T12:00:07;6.80;46.40
1878;DHT22;939;51.426;6.972;2023-03-01T12:03:09;6.60;47.00
1878;DHT22;939;51.426;6.972;2023-03-01T12:08:44;6.60;48.80
1878;DHT22;939;51.426;6.972;2023-03-01T12:11:26;6.70;49.90
1878;DHT22;939;51.426;6.972;2023-03-01T12:14:16;6.90;48.40
1878;DHT22;939;51.426;6.972;2023-03-01T12:20:04;6.90;51.30
1878;DHT22;939;51.426;6.972;2023-03-01T12:22:43;6.90;48.90
1878;DHT22;939;51.426;6.972;2023-03-01T12:25:22;6.90;50.70
1878;DHT22;939;51.426;6.972;2023-03-01T12:28:08;7.00;49.20
1878;DHT22;939;51.426;6.972;2023-03-01T12:30:49;6.80;48.60
1878;DHT22;939;51.426;6.972;2023-03-01T12:33:29;7.00;49.50
1878;DHT22;939;51.426;6.972;2023-03-01T12:36:27;7.10;51.30
1878;DHT22;939;51.426;6.972;2023-03-01T12:39:08;7.10;49.30
1878;DHT22;939;51.426;6.972;2023-03-01T12:41:48;7.20;48.10
1878;DHT22;939;51.426;6.972;2023-03-01T13:07:04;7.40;46.80
1878;DHT22;939;51.426;6.972;2023-03-01T13:09:40;7.50;48.30
1878;DHT22;939;51.426;6.972;2023-03-01T13:15:30;7.50;48.80
1878;DHT22;939;51.426;6.972;2023-03-01T13:17:59;7.40;47.00
1878;DHT22;939;51.426;6.972;2023-03-01T13:20:32;7.50;48.60
1878;DHT22;939;51.426;6.972;2023-03-01T13:23:13;7.50;47.50
1878;DHT22;939;51.426;6.972;2023-03-01T13:26:03;7.50;47.50
1878;DHT22;939;51.426;6.972;2023-03-01T13:28:52;7.50;47.10
1878;DHT22;939;51.426;6.972;2023-03-01T13:34:52;7.40;49.50
1878;DHT22;939;51.426;6.972;2023-03-01T13:37:24;7.40;49.10
1878;DHT22;939;51.426;6.972;2023-03-01T13:39:58;7.40;51.30
1878;DHT22;939;51.426;6.972;2023-03-01T13:42:33;7.50;51.70
1878;DHT22;939;51.426;6.972;2023-03-01T13:45:12;7.60;52.60
1878;DHT22;939;51.426;6.972;2023-03-01T13:47:43;7.70;48.40
1878;DHT22;939;51.426;6.972;2023-03-01T13:50:19;7.50;50.90
1878;DHT22;939;51.426;6.972;2023-03-01T13:52:50;7.80;52.40
1878;DHT22;939;51.426;6.972;2023-03-01T13:55:25;7.90;50.90
1878;DHT22;939;51.426;6.972;2023-03-01T13:57:56;8.10;49.50
1878;DHT22;939;51.426;6.972;2023-03-01T14:00:35;8.30;50.60
1878;DHT22;939;51.426;6.972;2023-03-01T14:03:10;10.50;47.60
1878;DHT22;939;51.426;6.972;2023-03-01T14:05:38;12.10;40.00
1878;DHT22;939;51.426;6.972;2023-03-01T14:08:20;13.00;36.80
1878;DHT22;939;51.426;6.972;2023-03-01T14:10:58;14.40;31.90
1878;DHT22;939;51.426;6.972;2023-03-01T14:13:45;15.60;29.20
1878;DHT22;939;51.426;6.972;2023-03-01T14:16:23;16.20;27.20
1878;DHT22;939;51.426;6.972;2023-03-01T14:19:00;17.00;25.80
1878;DHT22;939;51.426;6.972;2023-03-01T14:21:30;17.60;21.50
1878;DHT22;939;51.426;6.972;2023-03-01T14:23:57;18.10;20.90
1878;DHT22;939;51.426;6.972;2023-03-01T14:26:26;18.30;18.40
1878;DHT22;939;51.426;6.972;2023-03-01T14:28:53;18.10;18.20
1878;DHT22;939;51.426;6.972;2023-03-01T14:31:35;17.60;18.50
1878;DHT22;939;51.426;6.972;2023-03-01T14:34:03;16.10;18.80
1878;DHT22;939;51.426;6.972;2023-03-01T14:36:32;15.70;19.20
1878;DHT22;939;51.426;6.972;2023-03-01T14:39:00;15.50;19.30
1878;DHT22;939;51.426;6.972;2023-03-01T14:41:34;15.80;19.70
1878;DHT22;939;51.426;6.972;2023-03-01T14:44:04;17.20;18.60
1878;DHT22;939;51.426;6.972;2023-03-01T14:46:34;18.80;18.00
1878;DHT22;939;51.426;6.972;2023-03-01T14:49:04;19.40;16.90
1878;DHT22;939;51.426;6.972;2023-03-01T14:51:36;18.90;14.20
1878;DHT22;939;51.426;6.972;2023-03-01T14:54:10;17.90;14.40
1878;DHT22;939;51.426;6.972;2023-03-01T14:56:47;16.80;16.00
1878;DHT22;939;51.426;6.972;2023-03-01T14:59:19;16.30;17.50
1878;DHT22;939;51.426;6.972;2023-03-01T15:01:48;16.50;17.10
1878;DHT22;939;51.426;6.972;2023-03-01T15:04:18;17.00;16.20
1878;DHT22;939;51.426;6.972;2023-03-01T15:06:50;17.20;15.90
1878;DHT22;939;51.426;6.972;2023-03-01T15:09:17;17.60;15.60
1878;DHT22;939;51.426;6.972;2023-03-01T15:11:48;17.60;16.00
1878;DHT22;939;51.426;6.972;2023-03-01T15:14:29;17.20;15.50
1878;DHT22;939;51.426;6.972;2023-03-01T15:17:05;17.10;15.60
1878;DHT22;939;51.426;6.972;2023-03-01T15:19:41;16.20;16.90
1878;DHT22;939;51.426;6.972;2023-03-01T15:22:14;15.80;16.60
1878;DHT22;939;51.426;6.972;2023-03-01T15:24:46;15.70;16.90
1878;DHT22;939;51.426;6.972;2023-03-01T15:27:17;15.10;16.30
1878;DHT22;939;51.426;6.972;2023-03-01T15:29:49;14.80;17.00
1878;DHT22;939;51.426;6.972;2023-03-01T15:32:27;14.00;17.40
1878;DHT22;939;51.426;6.972;2023-03-01T15:34:56;12.90;18.60
1878;DHT22;939;51.426;6.972;2023-03-01T15:37:43;12.20;20.80
1878;DHT22;939;51.426;6.972;2023-03-01T15:40:21;12.60;22.30
1878;DHT22;939;51.426;6.972;2023-03-01T15:42:51;12.50;21.00
1878;DHT22;939;51.426;6.972;2023-03-01T15:45:24;12.50;20.70
1878;DHT22;939;51.426;6.972;2023-03-01T15:47:54;12.30;21.30
1878;DHT22;939;51.426;6.972;2023-03-01T15:50:26;12.10;20.90
1878;DHT22;939;51.426;6.972;2023-03-01T15:52:55;11.60;22.40
1878;DHT22;939;51.426;6.972;2023-03-01T15:55:24;11.50;22.00
1878;DHT22;939;51.426;6.972;2023-03-01T15:58:09;11.20;24.60
1878;DHT22;939;51.426;6.972;2023-03-01T16:00:39;10.40;25.00
1878;DHT22;939;51.426;6.972;2023-03-01T16:03:07;10.40;25.20
1878;DHT22;939;51.426;6.972;2023-03-01T16:05:37;10.20;24.80
1878;DHT22;939;51.426;6.972;2023-03-01T16:08:08;10.20;24.40
1878;DHT22;939;51.426;6.972;2023-03-01T16:10:35;10.10;25.00
1878;DHT22;939;51.426;6.972;2023-03-01T16:13:04;10.10;25.20
1878;DHT22;939;51.426;6.972;2023-03-01T16:15:33;10.10;25.00
1878;DHT22;939;51.426;6.972;2023-03-01T16:18:03;10.00;25.40
1878;DHT22;939;51.426;6.972;2023-03-01T16:20:32;9.90;25.50
1878;DHT22;939;51.426;6.972;2023-03-01T16:22:59;9.90;26.30
1878;DHT22;939;51.426;6.972;2023-03-01T16:25:27;9.80;26.80
1878;DHT22;939;51.426;6.972;2023-03-01T16:27:54;9.60;27.70
1878;DHT22;939;51.426;6.972;2023-03-01T16:30:25;9.20;28.90
1878;DHT22;939;51.426;6.972;2023-03-01T16:32:52;9.20;28.50
1878;DHT22;939;51.426;6.972;2023-03-01T16:35:20;9.20;28.90
1878;DHT22;939;51.426;6.972;2023-03-01T16:37:49;8.90;28.60
1878;DHT22;939;51.426;6.972;2023-03-01T16:40:19;8.90;29.40
1878;DHT22;939;51.426;6.972;2023-03-01T16:42:47;8.80;29.80
1878;DHT22;939;51.426;6.972;2023-03-01T16:45:14;8.70;29.20
1878;DHT22;939;51.426;6.972;2023-03-01T16:47:42;8.60;30.00
1878;DHT22;939;51.426;6.972;2023-03-01T16:50:10;8.60;29.90
1878;DHT22;939;51.426;6.972;2023-03-01T16:52:37;8.40;30.00
1878;DHT22;939;51.426;6.972;2023-03-01T16:55:07;8.20;30.00
1878;DHT22;939;51.426;6.972;2023-03-01T16:57:35;7.90;31.30
1878;DHT22;939;51.426;6.972;2023-03-01T17:00:03;7.90;31.50
1878;DHT22;939;51.426;6.972;2023-03-01T17:02:33;7.90;30.20
1878;DHT22;939;51.426;6.972;2023-03-01T17:05:02;7.90;30.40
1878;DHT22;939;51.426;6.972;2023-03-01T17:07:29;7.90;31.10
1878;DHT22;939;51.426;6.972;2023-03-01T17:09:58;7.90;31.30
1878;DHT22;939;51.426;6.972;2023-03-01T17:12:25;7.90;32.00
1878;DHT22;939;51.426;6.972;2023-03-01T17:14:53;7.70;32.90
1878;DHT22;939;51.426;6.972;2023-03-01T17:17:20;7.70;30.50
1878;DHT22;939;51.426;6.972;2023-03-01T17:19:47;7.70;30.90
1878;DHT22;939;51.426;6.972;2023-03-01T17:22:15;7.70;31.20
1878;DHT22;939;51.426;6.972;2023-03-01T17:24:43;7.70;32.10
1878;DHT22;939;51.426;6.972;2023-03-01T17:27:10;7.60;33.80
1878;DHT22;939;51.426;6.972;2023-03-01T17:29:38;7.60;33.90
1878;DHT22;939;51.426;6.972;2023-03-01T17:32:06;7.50;34.10
1878;DHT22;939;51.426;6.972;2023-03-01T17:34:33;7.40;36.30
1878;DHT22;939;51.426;6.972;2023-03-01T17:37:00;7.30;37.50